createdAt,value
2023-05-23T11:23:47.062Z,16.75
2023-05-23T11:24:47.027Z,16.71
2023-05-23T11:25:47.021Z,16.85
2023-05-23T11:26:46.991Z,16.98
2023-05-23T11:27:46.979Z,16.97
2023-05-23T11:28:46.983Z,17.40
2023-05-23T11:29:46.961Z,17.51
2023-05-23T11:30:46.932Z,17.75
2023-05-23T11:31:46.957Z,18.50
2023-05-23T11:32:46.981Z,18.37
2023-05-23T11:33:46.878Z,17.75
2023-05-23T11:34:46.868Z,17.77
2023-05-23T11:37:18.895Z,17.49
2023-05-23T11:44:18.964Z,17.30
2023-05-23T11:45:18.957Z,17.59
2023-05-23T11:46:18.955Z,17.75
2023-05-23T11:47:18.981Z,17.79
2023-05-23T11:48:18.931Z,17.62
2023-05-23T11:49:18.873Z,17.75
2023-05-23T11:50:18.869Z,17.68
2023-05-23T11:51:18.860Z,18.03
2023-05-23T11:52:18.833Z,18.62
2023-05-23T11:53:18.825Z,18.78
2023-05-23T11:54:18.824Z,18.69
2023-05-23T11:55:18.802Z,18.72
2023-05-23T11:56:18.801Z,18.91
2023-05-23T11:57:18.776Z,18.51
2023-05-23T11:58:18.786Z,18.67
2023-05-23T11:59:18.742Z,18.63
2023-05-23T12:00:18.745Z,18.37
2023-05-23T12:01:18.714Z,18.80
2023-05-23T12:02:39.005Z,18.18
2023-05-23T12:03:38.945Z,18.00
2023-05-23T12:04:38.868Z,18.20
2023-05-23T12:08:25.913Z,17.62
2023-05-23T12:09:25.893Z,17.92
2023-05-23T12:10:25.908Z,17.92
2023-05-23T12:11:25.854Z,18.30
2023-05-23T12:12:25.840Z,18.42
2023-05-23T12:13:25.854Z,18.82
2023-05-23T12:14:25.829Z,18.57
2023-05-23T12:15:25.793Z,18.55
2023-05-23T12:16:25.851Z,18.44
2023-05-23T12:17:25.786Z,18.26
2023-05-23T12:18:25.787Z,18.08
2023-05-23T12:19:25.767Z,17.96
2023-05-23T12:20:25.760Z,17.79
2023-05-23T12:21:25.720Z,17.96
2023-05-23T12:22:25.694Z,17.97
2023-05-23T12:23:25.704Z,17.89
2023-05-23T12:24:25.682Z,17.72
2023-05-23T12:25:25.645Z,18.03
2023-05-23T12:26:25.631Z,18.78
2023-05-23T12:27:25.618Z,19.50
2023-05-23T12:28:25.644Z,19.08
2023-05-23T12:29:25.587Z,18.39
2023-05-23T12:30:25.590Z,18.10
2023-05-23T12:31:25.640Z,17.95
2023-05-23T12:32:25.566Z,17.92
2023-05-23T12:35:26.725Z,17.11
2023-05-23T12:36:27.458Z,17.06
2023-05-23T12:37:26.696Z,17.15
2023-05-23T12:38:26.678Z,17.26
2023-05-23T12:39:26.669Z,17.59
2023-05-23T12:40:26.622Z,17.93
2023-05-23T12:41:26.624Z,17.51
2023-05-23T12:42:27.823Z,17.68
2023-05-23T12:43:26.621Z,17.82
2023-05-23T12:44:26.575Z,17.79
2023-05-23T12:45:26.573Z,17.59
2023-05-23T12:46:26.597Z,17.59
2023-05-23T12:47:26.654Z,17.46
2023-05-23T12:50:22.067Z,17.21
2023-05-23T12:51:22.058Z,17.37
2023-05-23T12:52:22.048Z,17.51
2023-05-23T12:53:24.349Z,17.43
2023-05-23T12:54:22.006Z,17.78
2023-05-23T12:55:21.996Z,18.37
2023-05-23T12:56:21.957Z,18.95
2023-05-23T12:57:21.979Z,18.52
2023-05-23T12:58:21.946Z,18.32
2023-05-23T12:59:21.934Z,18.26
2023-05-23T13:00:21.942Z,18.45
2023-05-23T13:01:21.973Z,18.15
2023-05-23T13:02:21.954Z,17.82
2023-05-23T13:03:21.927Z,18.20
2023-05-23T13:04:21.990Z,18.35
2023-05-23T13:05:21.853Z,18.27
2023-05-23T13:06:21.810Z,17.92
2023-05-23T13:07:21.825Z,17.51
2023-05-23T13:14:10.104Z,17.19
2023-05-23T13:15:10.076Z,17.16
2023-05-23T13:40:57.688Z,16.97
2023-05-23T13:41:57.681Z,17.19
2023-05-23T13:42:57.658Z,17.22
2023-05-23T13:43:57.629Z,17.28
2023-05-23T13:44:57.619Z,17.70
2023-05-23T13:45:57.615Z,17.95
2023-05-23T13:46:57.609Z,18.42
2023-05-23T13:47:57.594Z,18.54
2023-05-23T13:48:57.569Z,18.90
2023-05-23T13:49:57.533Z,19.04
2023-05-23T14:14:59.572Z,17.34
2023-05-23T14:15:59.607Z,18.08
2023-05-23T14:16:59.517Z,18.76
2023-05-23T14:17:59.568Z,19.78
2023-05-23T14:18:59.569Z,20.36
2023-05-23T14:19:59.488Z,20.41
2023-05-23T14:20:59.471Z,20.20
2023-05-23T14:21:59.455Z,19.99
2023-05-23T14:22:59.449Z,19.94
2023-05-23T14:23:59.457Z,19.55
2023-05-23T14:24:59.411Z,19.26
2023-05-23T14:25:59.390Z,18.95
2023-05-23T14:26:59.366Z,18.84
2023-05-23T14:27:59.387Z,18.95
2023-05-23T14:28:59.360Z,18.85
2023-05-23T14:29:59.342Z,18.52
2023-05-23T14:32:07.721Z,18.37
2023-05-23T14:33:10.571Z,18.14
2023-05-23T14:34:07.646Z,18.05
2023-05-23T14:35:07.646Z,18.63
2023-05-23T14:36:07.638Z,19.23
2023-05-23T14:37:07.636Z,18.58
2023-05-23T14:38:07.630Z,18.51
2023-05-23T14:39:10.375Z,18.27
2023-05-23T14:40:07.584Z,18.37
2023-05-23T14:41:07.550Z,18.25
2023-05-23T14:42:07.568Z,19.00
2023-05-23T14:43:07.592Z,20.16
2023-05-23T14:44:07.568Z,20.77
2023-05-23T15:00:06.833Z,18.72
2023-05-23T15:02:05.706Z,19.55
2023-05-23T15:03:05.653Z,19.61
2023-05-23T15:04:05.743Z,19.77
2023-05-23T15:05:05.596Z,20.16
2023-05-23T15:06:05.577Z,20.38
2023-05-23T15:07:05.566Z,20.16
2023-05-23T15:08:05.537Z,20.05
2023-05-23T15:09:05.552Z,20.42
2023-05-23T15:10:05.530Z,20.55
2023-05-23T15:11:05.501Z,21.10
2023-05-23T15:12:05.541Z,20.76
2023-05-23T15:13:05.508Z,20.32
2023-05-23T15:14:05.476Z,20.02
2023-05-23T15:15:05.504Z,20.02
2023-05-23T15:16:05.497Z,19.99
2023-05-23T15:17:05.433Z,19.96
2023-05-23T15:18:05.508Z,20.14
2023-05-23T15:19:05.516Z,19.58
2023-05-23T15:20:07.229Z,18.95
2023-05-23T15:21:05.392Z,18.70
2023-05-23T15:26:02.133Z,18.37
2023-05-23T15:27:15.678Z,18.81
2023-05-23T15:28:02.081Z,18.99
2023-05-23T15:29:02.040Z,18.70
2023-05-23T15:30:02.081Z,19.00
2023-05-23T15:31:02.044Z,19.22
2023-05-23T15:50:43.525Z,17.97
2023-05-23T15:51:43.251Z,18.81
2023-05-23T15:52:43.285Z,19.76
2023-05-23T15:53:59.742Z,20.38
2023-05-23T15:54:43.231Z,20.32
2023-05-23T15:55:43.223Z,20.74
2023-05-23T15:56:43.198Z,20.29
2023-05-23T15:57:43.196Z,20.13
2023-05-23T15:58:43.212Z,20.08
2023-05-23T15:59:43.152Z,20.31
2023-05-23T16:15:29.832Z,17.90
2023-05-23T16:16:29.881Z,18.41
2023-05-23T16:24:18.031Z,18.52
2023-05-23T16:25:18.021Z,18.95
2023-05-23T16:33:22.088Z,18.18
2023-05-23T16:49:12.149Z,18.18
2023-05-23T16:50:12.183Z,18.73
2023-05-23T16:51:12.110Z,19.04
2023-05-23T16:52:12.108Z,19.66
2023-05-23T16:53:12.173Z,19.96
2023-05-23T16:54:12.056Z,19.88
2023-05-23T16:55:12.052Z,19.71
2023-05-23T16:56:22.724Z,19.86
